Terminal Aerodrome Forecast
Issued by NWS

Home | Current Version | Previous Version | Graphics & Text | Print | Product List | Glossary On
Versions: 1 2 3 4 5 6 7 8 9 10 11 12 13
000
FTUS43 KICT 100520
TAFSLN
TAF
KSLN 100520Z 1006/1106 23006KT P6SM SKC
     FM100900 27008KT P6SM SKC
     FM101500 30014KT P6SM SKC
     FM110000 28006KT P6SM SKC=

USA.gov is the U.S. government's official web portal to all federal, state and local government web resources and services.